sensor_id;sensor_type;location;lat;lon;timestamp;temperature;humidity
13976;DHT22;7062;49.792;9.946;2022-11-15T00:00:26;9.60;99.90
13976;DHT22;7062;49.792;9.946;2022-11-15T00:02:53;9.60;99.90
13976;DHT22;7062;49.792;9.946;2022-11-15T00:05:18;9.60;99.90
13976;DHT22;7062;49.792;9.946;2022-11-15T00:07:44;9.60;99.90
13976;DHT22;7062;49.792;9.946;2022-11-15T00:10:10;9.70;99.90
13976;DHT22;7062;49.792;9.946;2022-11-15T00:12:35;9.70;99.90
13976;DHT22;7062;49.792;9.946;2022-11-15T00:15:01;9.80;99.90
13976;DHT22;7062;49.792;9.946;2022-11-15T00:17:27;9.80;99.90
13976;DHT22;7062;49.792;9.946;2022-11-15T00:19:52;9.90;99.90
13976;DHT22;7062;49.792;9.946;2022-11-15T00:22:18;9.90;99.90
13976;DHT22;7062;49.792;9.946;2022-11-15T00:24:44;10.00;99.90
13976;DHT22;7062;49.792;9.946;2022-11-15T00:27:09;9.90;99.90
13976;DHT22;7062;49.792;9.946;2022-11-15T00:29:35;9.80;99.90
13976;DHT22;7062;49.792;9.946;2022-11-15T00:32:03;9.70;99.90
13976;DHT22;7062;49.792;9.946;2022-11-15T00:34:28;9.70;99.90
13976;DHT22;7062;49.792;9.946;2022-11-15T00:36:54;9.90;99.90
13976;DHT22;7062;49.792;9.946;2022-11-15T00:39:19;9.80;99.90
13976;DHT22;7062;49.792;9.946;2022-11-15T00:41:45;9.70;99.90
13976;DHT22;7062;49.792;9.946;2022-11-15T00:44:10;9.70;99.90
13976;DHT22;7062;49.792;9.946;2022-11-15T00:46:36;9.60;99.90
13976;DHT22;7062;49.792;9.946;2022-11-15T00:49:02;9.50;99.90
13976;DHT22;7062;49.792;9.946;2022-11-15T00:51:27;9.60;99.90
13976;DHT22;7062;49.792;9.946;2022-11-15T00:53:53;9.60;99.90
13976;DHT22;7062;49.792;9.946;2022-11-15T00:56:19;9.60;99.90
13976;DHT22;7062;49.792;9.946;2022-11-15T00:58:45;9.60;99.90
13976;DHT22;7062;49.792;9.946;2022-11-15T01:01:14;9.60;99.90
13976;DHT22;7062;49.792;9.946;2022-11-15T01:03:41;9.60;99.90
13976;DHT22;7062;49.792;9.946;2022-11-15T01:06:08;9.60;99.90
13976;DHT22;7062;49.792;9.946;2022-11-15T01:08:33;9.50;99.90
13976;DHT22;7062;49.792;9.946;2022-11-15T01:11:04;9.60;99.90
13976;DHT22;7062;49.792;9.946;2022-11-15T01:13:32;9.60;99.90
13976;DHT22;7062;49.792;9.946;2022-11-15T01:15:58;9.50;99.90
13976;DHT22;7062;49.792;9.946;2022-11-15T01:18:23;9.50;99.90
13976;DHT22;7062;49.792;9.946;2022-11-15T01:20:49;9.50;99.90
13976;DHT22;7062;49.792;9.946;2022-11-15T01:23:15;9.60;99.90
13976;DHT22;7062;49.792;9.946;2022-11-15T01:25:40;9.50;99.90
13976;DHT22;7062;49.792;9.946;2022-11-15T01:28:06;9.60;99.90
13976;DHT22;7062;49.792;9.946;2022-11-15T01:30:32;9.70;99.90
13976;DHT22;7062;49.792;9.946;2022-11-15T01:32:57;9.60;99.90
13976;DHT22;7062;49.792;9.946;2022-11-15T01:35:23;9.70;99.90
13976;DHT22;7062;49.792;9.946;2022-11-15T01:37:49;9.70;99.90
13976;DHT22;7062;49.792;9.946;2022-11-15T01:40:14;9.70;99.90
13976;DHT22;7062;49.792;9.946;2022-11-15T01:42:40;9.80;99.90
13976;DHT22;7062;49.792;9.946;2022-11-15T01:45:07;9.80;99.90
13976;DHT22;7062;49.792;9.946;2022-11-15T01:47:40;9.80;99.90
13976;DHT22;7062;49.792;9.946;2022-11-15T01:50:10;9.80;99.90
13976;DHT22;7062;49.792;9.946;2022-11-15T01:52:38;9.70;99.90
13976;DHT22;7062;49.792;9.946;2022-11-15T01:55:09;9.70;99.90
13976;DHT22;7062;49.792;9.946;2022-11-15T01:57:37;9.60;99.90
13976;DHT22;7062;49.792;9.946;2022-11-15T02:00:04;9.40;99.90
13976;DHT22;7062;49.792;9.946;2022-11-15T02:02:31;9.40;99.90
13976;DHT22;7062;49.792;9.946;2022-11-15T02:04:57;9.30;99.90
13976;DHT22;7062;49.792;9.946;2022-11-15T02:07:23;9.30;99.90
13976;DHT22;7062;49.792;9.946;2022-11-15T02:09:50;9.30;99.90
13976;DHT22;7062;49.792;9.946;2022-11-15T02:12:19;9.30;99.90
13976;DHT22;7062;49.792;9.946;2022-11-15T02:14:49;9.30;99.90
13976;DHT22;7062;49.792;9.946;2022-11-15T02:23:14;9.40;99.90
13976;DHT22;7062;49.792;9.946;2022-11-15T02:31:54;9.40;99.90
13976;DHT22;7062;49.792;9.946;2022-11-15T02:42:02;9.40;99.90
13976;DHT22;7062;49.792;9.946;2022-11-15T02:44:39;9.30;99.90
13976;DHT22;7062;49.792;9.946;2022-11-15T02:47:13;9.30;99.90
13976;DHT22;7062;49.792;9.946;2022-11-15T02:49:45;9.10;99.90
13976;DHT22;7062;49.792;9.946;2022-11-15T02:52:19;9.00;99.90
13976;DHT22;7062;49.792;9.946;2022-11-15T02:54:59;9.00;99.90
13976;DHT22;7062;49.792;9.946;2022-11-15T03:00:09;8.90;99.90
13976;DHT22;7062;49.792;9.946;2022-11-15T03:08:25;8.90;99.90
13976;DHT22;7062;49.792;9.946;2022-11-15T03:11:03;8.90;99.90
13976;DHT22;7062;49.792;9.946;2022-11-15T03:13:50;8.80;99.90
13976;DHT22;7062;49.792;9.946;2022-11-15T03:16:24;8.90;99.90
13976;DHT22;7062;49.792;9.946;2022-11-15T03:18:58;8.80;99.90
13976;DHT22;7062;49.792;9.946;2022-11-15T03:21:25;8.70;99.90
13976;DHT22;7062;49.792;9.946;2022-11-15T03:23:54;8.70;99.90
13976;DHT22;7062;49.792;9.946;2022-11-15T03:26:23;8.80;99.90
13976;DHT22;7062;49.792;9.946;2022-11-15T03:28:57;8.80;99.90
13976;DHT22;7062;49.792;9.946;2022-11-15T03:31:28;8.70;99.90
13976;DHT22;7062;49.792;9.946;2022-11-15T03:34:47;8.70;99.90
13976;DHT22;7062;49.792;9.946;2022-11-15T03:37:15;8.60;99.90
13976;DHT22;7062;49.792;9.946;2022-11-15T03:39:42;8.60;99.90
13976;DHT22;7062;49.792;9.946;2022-11-15T03:42:28;8.60;99.90
13976;DHT22;7062;49.792;9.946;2022-11-15T03:45:02;8.50;99.90
13976;DHT22;7062;49.792;9.946;2022-11-15T03:47:36;8.50;99.90
13976;DHT22;7062;49.792;9.946;2022-11-15T03:50:17;8.40;99.90
13976;DHT22;7062;49.792;9.946;2022-11-15T03:52:45;8.50;99.90
13976;DHT22;7062;49.792;9.946;2022-11-15T03:55:15;8.50;99.90
13976;DHT22;7062;49.792;9.946;2022-11-15T03:57:41;8.50;99.90
13976;DHT22;7062;49.792;9.946;2022-11-15T04:00:07;8.50;99.90
13976;DHT22;7062;49.792;9.946;2022-11-15T04:02:33;8.40;99.90
13976;DHT22;7062;49.792;9.946;2022-11-15T04:04:58;8.30;99.90
13976;DHT22;7062;49.792;9.946;2022-11-15T04:07:24;8.30;99.90
13976;DHT22;7062;49.792;9.946;2022-11-15T04:09:50;8.30;99.90
13976;DHT22;7062;49.792;9.946;2022-11-15T04:12:29;8.20;99.90
13976;DHT22;7062;49.792;9.946;2022-11-15T04:15:03;8.20;99.90
13976;DHT22;7062;49.792;9.946;2022-11-15T04:17:43;8.20;99.90
13976;DHT22;7062;49.792;9.946;2022-11-15T04:20:21;8.10;99.90
13976;DHT22;7062;49.792;9.946;2022-11-15T04:23:12;8.10;99.90
13976;DHT22;7062;49.792;9.946;2022-11-15T04:25:59;8.10;99.90
13976;DHT22;7062;49.792;9.946;2022-11-15T04:28:25;8.10;99.90
13976;DHT22;7062;49.792;9.946;2022-11-15T04:30:51;7.90;99.90
13976;DHT22;7062;49.792;9.946;2022-11-15T04:33:16;7.90;99.90
13976;DHT22;7062;49.792;9.946;2022-11-15T04:35:42;7.90;99.90
13976;DHT22;7062;49.792;9.946;2022-11-15T04:38:09;7.90;99.90
13976;DHT22;7062;49.792;9.946;2022-11-15T04:40:36;7.90;99.90
13976;DHT22;7062;49.792;9.946;2022-11-15T04:43:03;7.90;99.90
13976;DHT22;7062;49.792;9.946;2022-11-15T04:45:29;7.90;99.90
13976;DHT22;7062;49.792;9.946;2022-11-15T04:47:54;7.90;99.90
13976;DHT22;7062;49.792;9.946;2022-11-15T04:50:20;7.90;99.90
13976;DHT22;7062;49.792;9.946;2022-11-15T04:52:53;7.90;99.90
13976;DHT22;7062;49.792;9.946;2022-11-15T04:55:19;7.80;99.90
13976;DHT22;7062;49.792;9.946;2022-11-15T04:57:45;7.90;99.90
13976;DHT22;7062;49.792;9.946;2022-11-15T05:00:13;7.80;99.90
13976;DHT22;7062;49.792;9.946;2022-11-15T05:02:39;7.90;99.90
13976;DHT22;7062;49.792;9.946;2022-11-15T05:05:24;7.90;99.90
13976;DHT22;7062;49.792;9.946;2022-11-15T05:07:50;7.80;99.90
13976;DHT22;7062;49.792;9.946;2022-11-15T05:10:16;7.70;99.90
13976;DHT22;7062;49.792;9.946;2022-11-15T05:12:42;7.70;99.90
13976;DHT22;7062;49.792;9.946;2022-11-15T05:15:08;7.70;99.90
13976;DHT22;7062;49.792;9.946;2022-11-15T05:17:34;7.70;99.90
13976;DHT22;7062;49.792;9.946;2022-11-15T05:19:59;7.70;99.90
13976;DHT22;7062;49.792;9.946;2022-11-15T05:22:25;7.70;99.90
13976;DHT22;7062;49.792;9.946;2022-11-15T05:24:51;7.60;99.90
13976;DHT22;7062;49.792;9.946;2022-11-15T05:27:16;7.50;99.90
13976;DHT22;7062;49.792;9.946;2022-11-15T05:29:42;7.60;99.90
13976;DHT22;7062;49.792;9.946;2022-11-15T05:32:09;7.70;99.90
13976;DHT22;7062;49.792;9.946;2022-11-15T05:34:35;7.80;99.90
13976;DHT22;7062;49.792;9.946;2022-11-15T05:37:01;7.70;99.90
13976;DHT22;7062;49.792;9.946;2022-11-15T05:39:27;7.80;99.90
13976;DHT22;7062;49.792;9.946;2022-11-15T05:41:57;7.70;99.90
13976;DHT22;7062;49.792;9.946;2022-11-15T05:44:25;7.50;99.90
13976;DHT22;7062;49.792;9.946;2022-11-15T05:46:52;7.40;99.90
13976;DHT22;7062;49.792;9.946;2022-11-15T05:49:22;7.50;99.90
13976;DHT22;7062;49.792;9.946;2022-11-15T05:51:49;7.40;99.90
13976;DHT22;7062;49.792;9.946;2022-11-15T05:54:17;7.40;99.90
13976;DHT22;7062;49.792;9.946;2022-11-15T05:56:44;7.50;99.90
13976;DHT22;7062;49.792;9.946;2022-11-15T05:59:10;7.50;99.90
13976;DHT22;7062;49.792;9.946;2022-11-15T06:01:36;7.60;99.90
13976;DHT22;7062;49.792;9.946;2022-11-15T06:04:03;7.60;99.90
13976;DHT22;7062;49.792;9.946;2022-11-15T06:06:29;7.50;99.90
13976;DHT22;7062;49.792;9.946;2022-11-15T06:08:54;7.60;99.90
13976;DHT22;7062;49.792;9.946;2022-11-15T06:11:20;7.70;99.90
13976;DHT22;7062;49.792;9.946;2022-11-15T06:13:45;7.70;99.90
13976;DHT22;7062;49.792;9.946;2022-11-15T06:16:11;7.50;99.90
13976;DHT22;7062;49.792;9.946;2022-11-15T06:18:37;7.50;99.90
13976;DHT22;7062;49.792;9.946;2022-11-15T06:21:03;7.40;99.90
13976;DHT22;7062;49.792;9.946;2022-11-15T06:23:32;7.30;99.90
13976;DHT22;7062;49.792;9.946;2022-11-15T06:25:59;7.30;99.90
13976;DHT22;7062;49.792;9.946;2022-11-15T06:28:28;7.30;99.90
13976;DHT22;7062;49.792;9.946;2022-11-15T06:30:54;7.50;99.90
13976;DHT22;7062;49.792;9.946;2022-11-15T06:33:20;7.50;99.90
13976;DHT22;7062;49.792;9.946;2022-11-15T06:35:46;7.60;99.90
13976;DHT22;7062;49.792;9.946;2022-11-15T06:38:11;7.60;99.90
13976;DHT22;7062;49.792;9.946;2022-11-15T06:40:38;7.60;99.90
13976;DHT22;7062;49.792;9.946;2022-11-15T06:43:05;7.50;99.90
13976;DHT22;7062;49.792;9.946;2022-11-15T06:45:31;7.50;99.90
13976;DHT22;7062;49.792;9.946;2022-11-15T06:47:57;7.50;99.90
13976;DHT22;7062;49.792;9.946;2022-11-15T06:50:23;7.50;99.90
13976;DHT22;7062;49.792;9.946;2022-11-15T06:52:49;7.40;99.90
13976;DHT22;7062;49.792;9.946;2022-11-15T06:55:14;7.40;99.90
13976;DHT22;7062;49.792;9.946;2022-11-15T06:57:50;7.30;99.90
13976;DHT22;7062;49.792;9.946;2022-11-15T07:00:18;7.20;99.90
13976;DHT22;7062;49.792;9.946;2022-11-15T07:02:45;7.40;99.90
13976;DHT22;7062;49.792;9.946;2022-11-15T07:05:11;7.50;99.90
13976;DHT22;7062;49.792;9.946;2022-11-15T07:07:37;7.50;99.90
13976;DHT22;7062;49.792;9.946;2022-11-15T07:10:03;7.60;99.90
13976;DHT22;7062;49.792;9.946;2022-11-15T07:12:30;7.70;99.90
13976;DHT22;7062;49.792;9.946;2022-11-15T07:14:55;7.90;99.90
13976;DHT22;7062;49.792;9.946;2022-11-15T07:17:21;7.90;99.90
13976;DHT22;7062;49.792;9.946;2022-11-15T07:19:47;7.90;99.90
13976;DHT22;7062;49.792;9.946;2022-11-15T07:22:12;8.00;99.90
13976;DHT22;7062;49.792;9.946;2022-11-15T07:24:38;7.90;99.90
13976;DHT22;7062;49.792;9.946;2022-11-15T07:27:03;8.10;99.90
13976;DHT22;7062;49.792;9.946;2022-11-15T07:29:29;8.10;99.90
13976;DHT22;7062;49.792;9.946;2022-11-15T07:31:55;8.00;99.90
13976;DHT22;7062;49.792;9.946;2022-11-15T07:34:20;8.00;99.90
13976;DHT22;7062;49.792;9.946;2022-11-15T07:36:46;8.10;99.90
13976;DHT22;7062;49.792;9.946;2022-11-15T07:39:11;8.10;99.90
13976;DHT22;7062;49.792;9.946;2022-11-15T07:41:38;8.10;99.90
13976;DHT22;7062;49.792;9.946;2022-11-15T07:44:04;8.20;99.90
13976;DHT22;7062;49.792;9.946;2022-11-15T07:46:31;8.20;99.90
13976;DHT22;7062;49.792;9.946;2022-11-15T07:48:56;8.30;99.90
13976;DHT22;7062;49.792;9.946;2022-11-15T07:51:22;8.30;99.90
13976;DHT22;7062;49.792;9.946;2022-11-15T07:53:48;8.30;99.90
13976;DHT22;7062;49.792;9.946;2022-11-15T07:56:13;8.40;99.90
13976;DHT22;7062;49.792;9.946;2022-11-15T07:58:39;8.50;99.90
13976;DHT22;7062;49.792;9.946;2022-11-15T08:01:06;8.50;99.90
13976;DHT22;7062;49.792;9.946;2022-11-15T08:03:32;8.40;99.90
13976;DHT22;7062;49.792;9.946;2022-11-15T08:05:58;8.50;99.90
13976;DHT22;7062;49.792;9.946;2022-11-15T08:08:24;8.50;99.90
13976;DHT22;7062;49.792;9.946;2022-11-15T08:10:50;8.50;99.90
13976;DHT22;7062;49.792;9.946;2022-11-15T08:13:16;8.50;99.90
13976;DHT22;7062;49.792;9.946;2022-11-15T08:15:41;8.50;99.90
13976;DHT22;7062;49.792;9.946;2022-11-15T08:18:11;8.50;99.90
13976;DHT22;7062;49.792;9.946;2022-11-15T08:20:37;8.50;99.90
13976;DHT22;7062;49.792;9.946;2022-11-15T08:23:03;8.70;99.90
13976;DHT22;7062;49.792;9.946;2022-11-15T08:25:31;8.80;99.90
13976;DHT22;7062;49.792;9.946;2022-11-15T08:27:59;8.80;99.90
13976;DHT22;7062;49.792;9.946;2022-11-15T08:30:25;8.90;99.90
13976;DHT22;7062;49.792;9.946;2022-11-15T08:32:52;9.00;99.90
13976;DHT22;7062;49.792;9.946;2022-11-15T08:35:19;9.10;99.90
13976;DHT22;7062;49.792;9.946;2022-11-15T08:37:45;9.30;99.90
13976;DHT22;7062;49.792;9.946;2022-11-15T08:40:10;9.20;99.90
13976;DHT22;7062;49.792;9.946;2022-11-15T08:42:36;9.40;99.90
13976;DHT22;7062;49.792;9.946;2022-11-15T08:45:03;9.40;99.90
13976;DHT22;7062;49.792;9.946;2022-11-15T08:47:29;9.40;99.90
13976;DHT22;7062;49.792;9.946;2022-11-15T08:49:54;9.40;99.90
13976;DHT22;7062;49.792;9.946;2022-11-15T08:52:20;9.50;99.90
13976;DHT22;7062;49.792;9.946;2022-11-15T08:54:46;9.50;99.90
13976;DHT22;7062;49.792;9.946;2022-11-15T08:57:12;9.50;99.90
13976;DHT22;7062;49.792;9.946;2022-11-15T08:59:37;9.50;99.90
13976;DHT22;7062;49.792;9.946;2022-11-15T09:02:04;9.60;99.90
13976;DHT22;7062;49.792;9.946;2022-11-15T09:04:30;9.70;99.90
13976;DHT22;7062;49.792;9.946;2022-11-15T09:06:55;9.60;99.90
13976;DHT22;7062;49.792;9.946;2022-11-15T09:09:21;9.70;99.90
13976;DHT22;7062;49.792;9.946;2022-11-15T09:11:47;9.80;99.90
13976;DHT22;7062;49.792;9.946;2022-11-15T09:14:13;9.90;99.90
13976;DHT22;7062;49.792;9.946;2022-11-15T09:16:39;10.00;99.90
13976;DHT22;7062;49.792;9.946;2022-11-15T09:19:05;10.00;99.90
13976;DHT22;7062;49.792;9.946;2022-11-15T09:21:31;10.10;99.90
13976;DHT22;7062;49.792;9.946;2022-11-15T09:23:57;10.20;99.90
13976;DHT22;7062;49.792;9.946;2022-11-15T09:26:23;10.30;99.90
13976;DHT22;7062;49.792;9.946;2022-11-15T09:28:49;10.40;99.90
13976;DHT22;7062;49.792;9.946;2022-11-15T09:31:15;10.40;99.90
13976;DHT22;7062;49.792;9.946;2022-11-15T09:33:43;10.50;99.90
13976;DHT22;7062;49.792;9.946;2022-11-15T09:36:10;10.70;99.90
13976;DHT22;7062;49.792;9.946;2022-11-15T09:38:36;10.80;99.90
13976;DHT22;7062;49.792;9.946;2022-11-15T09:44:20;11.20;99.90
13976;DHT22;7062;49.792;9.946;2022-11-15T09:47:05;11.60;99.90
13976;DHT22;7062;49.792;9.946;2022-11-15T09:49:34;11.80;99.90
13976;DHT22;7062;49.792;9.946;2022-11-15T09:51:59;11.90;99.90
13976;DHT22;7062;49.792;9.946;2022-11-15T09:54:35;12.00;99.90
13976;DHT22;7062;49.792;9.946;2022-11-15T09:57:11;12.30;99.90
13976;DHT22;7062;49.792;9.946;2022-11-15T10:04:43;21.90;99.90
13976;DHT22;7062;49.792;9.946;2022-11-15T10:08:20;23.10;99.90
13976;DHT22;7062;49.792;9.946;2022-11-15T10:12:47;25.80;99.80
13976;DHT22;7062;49.792;9.946;2022-11-15T10:15:16;25.60;97.90
13976;DHT22;7062;49.792;9.946;2022-11-15T10:20:28;25.80;96.00
13976;DHT22;7062;49.792;9.946;2022-11-15T10:22:58;25.70;96.00
13976;DHT22;7062;49.792;9.946;2022-11-15T10:25:27;24.80;96.20
13976;DHT22;7062;49.792;9.946;2022-11-15T10:30:42;23.80;97.00
13976;DHT22;7062;49.792;9.946;2022-11-15T10:33:26;22.50;98.30
13976;DHT22;7062;49.792;9.946;2022-11-15T10:41:36;24.80;95.80
13976;DHT22;7062;49.792;9.946;2022-11-15T10:46:34;19.60;99.90
13976;DHT22;7062;49.792;9.946;2022-11-15T10:49:29;18.00;99.90
13976;DHT22;7062;49.792;9.946;2022-11-15T10:52:12;16.60;99.90
13976;DHT22;7062;49.792;9.946;2022-11-15T10:57:17;16.50;99.90
13976;DHT22;7062;49.792;9.946;2022-11-15T10:59:52;16.60;99.90
13976;DHT22;7062;49.792;9.946;2022-11-15T11:02:28;17.00;99.90
13976;DHT22;7062;49.792;9.946;2022-11-15T11:04:54;17.00;99.90
13976;DHT22;7062;49.792;9.946;2022-11-15T11:07:26;16.80;99.90
13976;DHT22;7062;49.792;9.946;2022-11-15T11:10:04;16.70;99.90
13976;DHT22;7062;49.792;9.946;2022-11-15T11:12:34;16.40;99.90
13976;DHT22;7062;49.792;9.946;2022-11-15T11:15:05;16.40;99.90
13976;DHT22;7062;49.792;9.946;2022-11-15T11:20:25;16.40;99.90
13976;DHT22;7062;49.792;9.946;2022-11-15T11:26:14;16.30;99.90
13976;DHT22;7062;49.792;9.946;2022-11-15T11:29:02;16.40;99.90
13976;DHT22;7062;49.792;9.946;2022-11-15T11:40:12;16.10;99.90
13976;DHT22;7062;49.792;9.946;2022-11-15T11:48:59;16.30;99.90
13976;DHT22;7062;49.792;9.946;2022-11-15T11:51:13;16.20;99.90
13976;DHT22;7062;49.792;9.946;2022-11-15T11:56:37;16.10;99.90
13976;DHT22;7062;49.792;9.946;2022-11-15T11:59:21;15.90;99.90
13976;DHT22;7062;49.792;9.946;2022-11-15T12:01:48;15.70;99.90
13976;DHT22;7062;49.792;9.946;2022-11-15T12:07:01;15.30;99.90
13976;DHT22;7062;49.792;9.946;2022-11-15T12:09:33;15.20;99.90
13976;DHT22;7062;49.792;9.946;2022-11-15T12:14:47;15.40;99.90
13976;DHT22;7062;49.792;9.946;2022-11-15T12:17:17;15.30;99.90
13976;DHT22;7062;49.792;9.946;2022-11-15T12:19:45;15.40;99.90
13976;DHT22;7062;49.792;9.946;2022-11-15T12:22:20;15.40;99.90
13976;DHT22;7062;49.792;9.946;2022-11-15T12:25:00;15.40;99.90
13976;DHT22;7062;49.792;9.946;2022-11-15T12:27:37;15.30;99.90
13976;DHT22;7062;49.792;9.946;2022-11-15T12:30:12;15.40;99.90
13976;DHT22;7062;49.792;9.946;2022-11-15T12:32:39;15.30;99.90
13976;DHT22;7062;49.792;9.946;2022-11-15T12:37:55;15.00;99.90
13976;DHT22;7062;49.792;9.946;2022-11-15T12:40:27;14.90;99.90
13976;DHT22;7062;49.792;9.946;2022-11-15T12:45:36;15.10;99.90
13976;DHT22;7062;49.792;9.946;2022-11-15T12:50:55;15.40;99.90
13976;DHT22;7062;49.792;9.946;2022-11-15T12:59:00;15.50;99.90
13976;DHT22;7062;49.792;9.946;2022-11-15T13:11:58;15.50;99.90
13976;DHT22;7062;49.792;9.946;2022-11-15T13:22:51;15.60;99.90
13976;DHT22;7062;49.792;9.946;2022-11-15T13:31:03;15.60;99.90
13976;DHT22;7062;49.792;9.946;2022-11-15T13:36:15;15.50;99.90
13976;DHT22;7062;49.792;9.946;2022-11-15T13:38:44;15.60;99.90
13976;DHT22;7062;49.792;9.946;2022-11-15T13:41:22;15.70;99.90
13976;DHT22;7062;49.792;9.946;2022-11-15T13:43:49;15.80;99.90
13976;DHT22;7062;49.792;9.946;2022-11-15T13:48:59;15.80;99.90
13976;DHT22;7062;49.792;9.946;2022-11-15T13:51:44;15.80;99.90
13976;DHT22;7062;49.792;9.946;2022-11-15T13:54:45;15.80;99.90
13976;DHT22;7062;49.792;9.946;2022-11-15T13:57:21;15.80;99.90
13976;DHT22;7062;49.792;9.946;2022-11-15T13:59:52;15.60;99.90
13976;DHT22;7062;49.792;9.946;2022-11-15T14:02:27;15.40;99.90
13976;DHT22;7062;49.792;9.946;2022-11-15T14:04:58;15.40;99.90
13976;DHT22;7062;49.792;9.946;2022-11-15T14:07:26;15.40;99.90
13976;DHT22;7062;49.792;9.946;2022-11-15T14:09:53;15.40;99.90
13976;DHT22;7062;49.792;9.946;2022-11-15T14:14:51;15.30;99.90
13976;DHT22;7062;49.792;9.946;2022-11-15T14:17:33;15.30;99.90
13976;DHT22;7062;49.792;9.946;2022-11-15T14:19:59;15.40;99.90
13976;DHT22;7062;49.792;9.946;2022-11-15T14:22:27;15.40;99.90
13976;DHT22;7062;49.792;9.946;2022-11-15T14:27:39;15.40;99.90
13976;DHT22;7062;49.792;9.946;2022-11-15T14:30:14;15.40;99.90
13976;DHT22;7062;49.792;9.946;2022-11-15T14:32:50;15.40;99.90
13976;DHT22;7062;49.792;9.946;2022-11-15T14:35:21;15.30;99.90
13976;DHT22;7062;49.792;9.946;2022-11-15T14:37:47;15.30;99.90
13976;DHT22;7062;49.792;9.946;2022-11-15T14:40:19;15.10;99.90
13976;DHT22;7062;49.792;9.946;2022-11-15T14:42:47;15.00;99.90
13976;DHT22;7062;49.792;9.946;2022-11-15T14:45:21;14.90;99.90
13976;DHT22;7062;49.792;9.946;2022-11-15T14:47:47;14.80;99.90
13976;DHT22;7062;49.792;9.946;2022-11-15T14:50:14;14.70;99.90
13976;DHT22;7062;49.792;9.946;2022-11-15T14:52:40;14.70;99.90
13976;DHT22;7062;49.792;9.946;2022-11-15T14:55:26;14.60;99.90
13976;DHT22;7062;49.792;9.946;2022-11-15T14:57:52;14.50;99.90
13976;DHT22;7062;49.792;9.946;2022-11-15T15:00:19;14.50;99.90
13976;DHT22;7062;49.792;9.946;2022-11-15T15:02:45;14.30;99.90
13976;DHT22;7062;49.792;9.946;2022-11-15T15:07:43;14.30;99.90
13976;DHT22;7062;49.792;9.946;2022-11-15T15:10:09;14.30;99.90
13976;DHT22;7062;49.792;9.946;2022-11-15T15:12:35;14.30;99.90
13976;DHT22;7062;49.792;9.946;2022-11-15T15:15:00;14.20;99.90
13976;DHT22;7062;49.792;9.946;2022-11-15T15:17:26;14.20;99.90
13976;DHT22;7062;49.792;9.946;2022-11-15T15:19:52;14.20;99.90
13976;DHT22;7062;49.792;9.946;2022-11-15T15:22:19;14.20;99.90
13976;DHT22;7062;49.792;9.946;2022-11-15T15:24:48;14.20;99.90
13976;DHT22;7062;49.792;9.946;2022-11-15T15:27:14;14.20;99.90
13976;DHT22;7062;49.792;9.946;2022-11-15T15:29:40;14.10;99.90
13976;DHT22;7062;49.792;9.946;2022-11-15T15:32:05;14.10;99.90
13976;DHT22;7062;49.792;9.946;2022-11-15T15:34:32;14.00;99.90
13976;DHT22;7062;49.792;9.946;2022-11-15T15:37:23;13.90;99.90
13976;DHT22;7062;49.792;9.946;2022-11-15T15:39:53;13.90;99.90
13976;DHT22;7062;49.792;9.946;2022-11-15T15:42:20;13.90;99.90
13976;DHT22;7062;49.792;9.946;2022-11-15T15:44:47;13.80;99.90
13976;DHT22;7062;49.792;9.946;2022-11-15T15:47:15;13.80;99.90
13976;DHT22;7062;49.792;9.946;2022-11-15T15:49:41;13.70;99.90
13976;DHT22;7062;49.792;9.946;2022-11-15T15:52:07;13.60;99.90
13976;DHT22;7062;49.792;9.946;2022-11-15T15:54:33;13.70;99.90
13976;DHT22;7062;49.792;9.946;2022-11-15T15:56:58;13.70;99.90
13976;DHT22;7062;49.792;9.946;2022-11-15T15:59:24;13.60;99.90
13976;DHT22;7062;49.792;9.946;2022-11-15T16:01:49;13.60;99.90
13976;DHT22;7062;49.792;9.946;2022-11-15T16:04:15;13.60;99.90
13976;DHT22;7062;49.792;9.946;2022-11-15T16:06:41;13.60;99.90
13976;DHT22;7062;49.792;9.946;2022-11-15T16:09:18;13.50;99.90
13976;DHT22;7062;49.792;9.946;2022-11-15T16:11:45;13.50;99.90
13976;DHT22;7062;49.792;9.946;2022-11-15T16:14:11;13.60;99.90
13976;DHT22;7062;49.792;9.946;2022-11-15T16:16:37;13.60;99.90
13976;DHT22;7062;49.792;9.946;2022-11-15T16:19:03;13.60;99.90
13976;DHT22;7062;49.792;9.946;2022-11-15T16:21:29;13.50;99.90
13976;DHT22;7062;49.792;9.946;2022-11-15T16:23:55;13.60;99.90
13976;DHT22;7062;49.792;9.946;2022-11-15T16:26:28;13.60;99.90
13976;DHT22;7062;49.792;9.946;2022-11-15T16:28:54;13.60;99.90
13976;DHT22;7062;49.792;9.946;2022-11-15T16:31:20;13.50;99.90
13976;DHT22;7062;49.792;9.946;2022-11-15T16:33:48;13.50;99.90
13976;DHT22;7062;49.792;9.946;2022-11-15T16:36:34;13.40;99.90
13976;DHT22;7062;49.792;9.946;2022-11-15T16:39:01;13.40;99.90
13976;DHT22;7062;49.792;9.946;2022-11-15T16:41:30;13.40;99.90
13976;DHT22;7062;49.792;9.946;2022-11-15T16:43:56;13.40;99.90
13976;DHT22;7062;49.792;9.946;2022-11-15T16:46:27;13.30;99.90
13976;DHT22;7062;49.792;9.946;2022-11-15T16:48:54;13.40;99.90
13976;DHT22;7062;49.792;9.946;2022-11-15T16:51:19;13.40;99.90
13976;DHT22;7062;49.792;9.946;2022-11-15T16:53:45;13.40;99.90
13976;DHT22;7062;49.792;9.946;2022-11-15T16:58:48;13.40;99.90
13976;DHT22;7062;49.792;9.946;2022-11-15T17:01:22;13.40;99.90
13976;DHT22;7062;49.792;9.946;2022-11-15T17:03:48;13.30;99.90
13976;DHT22;7062;49.792;9.946;2022-11-15T17:06:14;13.40;99.90
13976;DHT22;7062;49.792;9.946;2022-11-15T17:08:40;13.40;99.90
13976;DHT22;7062;49.792;9.946;2022-11-15T17:11:07;13.30;99.90
13976;DHT22;7062;49.792;9.946;2022-11-15T17:13:33;13.30;99.90
13976;DHT22;7062;49.792;9.946;2022-11-15T17:16:06;13.30;99.90
13976;DHT22;7062;49.792;9.946;2022-11-15T17:18:33;13.20;99.90
13976;DHT22;7062;49.792;9.946;2022-11-15T17:21:15;13.10;99.90
13976;DHT22;7062;49.792;9.946;2022-11-15T17:23:41;13.20;99.90
13976;DHT22;7062;49.792;9.946;2022-11-15T17:26:09;13.30;99.90
13976;DHT22;7062;49.792;9.946;2022-11-15T17:28:36;13.30;99.90
13976;DHT22;7062;49.792;9.946;2022-11-15T17:31:06;13.30;99.90
13976;DHT22;7062;49.792;9.946;2022-11-15T17:33:32;13.30;99.90
13976;DHT22;7062;49.792;9.946;2022-11-15T17:36:00;13.30;99.90
13976;DHT22;7062;49.792;9.946;2022-11-15T17:38:26;13.30;99.90
13976;DHT22;7062;49.792;9.946;2022-11-15T17:41:05;13.20;99.90
13976;DHT22;7062;49.792;9.946;2022-11-15T17:43:33;13.30;99.90
13976;DHT22;7062;49.792;9.946;2022-11-15T17:46:03;13.20;99.90
13976;DHT22;7062;49.792;9.946;2022-11-15T17:48:29;13.30;99.90
13976;DHT22;7062;49.792;9.946;2022-11-15T17:50:56;13.20;99.90
13976;DHT22;7062;49.792;9.946;2022-11-15T17:53:23;13.00;99.90
13976;DHT22;7062;49.792;9.946;2022-11-15T17:55:48;13.00;99.90
13976;DHT22;7062;49.792;9.946;2022-11-15T17:58:14;13.00;99.90
13976;DHT22;7062;49.792;9.946;2022-11-15T18:00:46;13.00;99.90
13976;DHT22;7062;49.792;9.946;2022-11-15T18:03:12;13.10;99.90
13976;DHT22;7062;49.792;9.946;2022-11-15T18:05:39;13.20;99.90
13976;DHT22;7062;49.792;9.946;2022-11-15T18:08:11;13.20;99.90
13976;DHT22;7062;49.792;9.946;2022-11-15T18:10:40;13.20;99.90
13976;DHT22;7062;49.792;9.946;2022-11-15T18:13:06;13.10;99.90
13976;DHT22;7062;49.792;9.946;2022-11-15T18:15:33;13.10;99.90
13976;DHT22;7062;49.792;9.946;2022-11-15T18:17:59;13.20;99.90
13976;DHT22;7062;49.792;9.946;2022-11-15T18:20:25;13.10;99.90
13976;DHT22;7062;49.792;9.946;2022-11-15T18:22:53;13.00;99.90